sensor_id;sensor_type;location;lat;lon;timestamp;temperature;humidity
8067;DHT22;4076;48.076;9.118;2024-02-04T00:00:34;1.80;99.90
8067;DHT22;4076;48.076;9.118;2024-02-04T00:03:00;1.80;99.90
8067;DHT22;4076;48.076;9.118;2024-02-04T00:05:25;1.90;99.90
8067;DHT22;4076;48.076;9.118;2024-02-04T00:07:51;2.00;99.90
8067;DHT22;4076;48.076;9.118;2024-02-04T00:10:17;2.00;99.90
8067;DHT22;4076;48.076;9.118;2024-02-04T00:12:43;2.10;99.90
8067;DHT22;4076;48.076;9.118;2024-02-04T00:15:09;2.20;99.90
8067;DHT22;4076;48.076;9.118;2024-02-04T00:17:35;2.20;99.90
8067;DHT22;4076;48.076;9.118;2024-02-04T00:20:02;2.30;99.90
8067;DHT22;4076;48.076;9.118;2024-02-04T00:22:31;2.40;99.90
8067;DHT22;4076;48.076;9.118;2024-02-04T00:24:56;2.40;99.90
8067;DHT22;4076;48.076;9.118;2024-02-04T00:27:27;2.50;99.90
8067;DHT22;4076;48.076;9.118;2024-02-04T00:29:52;2.50;99.90
8067;DHT22;4076;48.076;9.118;2024-02-04T00:32:18;2.50;99.90
8067;DHT22;4076;48.076;9.118;2024-02-04T00:34:44;2.60;99.90
8067;DHT22;4076;48.076;9.118;2024-02-04T00:37:09;2.60;99.90
8067;DHT22;4076;48.076;9.118;2024-02-04T00:39:35;2.70;99.90
8067;DHT22;4076;48.076;9.118;2024-02-04T00:42:01;2.70;99.90
8067;DHT22;4076;48.076;9.118;2024-02-04T00:44:26;2.70;99.90
8067;DHT22;4076;48.076;9.118;2024-02-04T00:46:52;2.70;99.90
8067;DHT22;4076;48.076;9.118;2024-02-04T00:49:17;2.80;99.90
8067;DHT22;4076;48.076;9.118;2024-02-04T00:51:43;2.80;99.90
8067;DHT22;4076;48.076;9.118;2024-02-04T00:54:09;2.80;99.90
8067;DHT22;4076;48.076;9.118;2024-02-04T00:56:34;2.80;99.90
8067;DHT22;4076;48.076;9.118;2024-02-04T00:59:00;2.90;99.90
8067;DHT22;4076;48.076;9.118;2024-02-04T01:01:26;2.90;99.90
8067;DHT22;4076;48.076;9.118;2024-02-04T01:03:51;2.90;99.90
8067;DHT22;4076;48.076;9.118;2024-02-04T01:06:17;2.90;99.90
8067;DHT22;4076;48.076;9.118;2024-02-04T01:08:42;2.90;99.90
8067;DHT22;4076;48.076;9.118;2024-02-04T01:11:08;3.00;99.90
8067;DHT22;4076;48.076;9.118;2024-02-04T01:13:34;3.00;99.90
8067;DHT22;4076;48.076;9.118;2024-02-04T01:15:59;3.10;99.90
8067;DHT22;4076;48.076;9.118;2024-02-04T01:18:25;3.10;99.90
8067;DHT22;4076;48.076;9.118;2024-02-04T01:20:51;3.10;99.90
8067;DHT22;4076;48.076;9.118;2024-02-04T01:23:16;3.10;99.90
8067;DHT22;4076;48.076;9.118;2024-02-04T01:25:45;3.10;99.90
8067;DHT22;4076;48.076;9.118;2024-02-04T01:28:11;3.10;99.90
8067;DHT22;4076;48.076;9.118;2024-02-04T01:30:36;3.10;99.90
8067;DHT22;4076;48.076;9.118;2024-02-04T01:33:03;3.10;99.90
8067;DHT22;4076;48.076;9.118;2024-02-04T01:35:28;3.20;99.90
8067;DHT22;4076;48.076;9.118;2024-02-04T01:37:54;3.20;99.90
8067;DHT22;4076;48.076;9.118;2024-02-04T01:40:20;3.20;99.90
8067;DHT22;4076;48.076;9.118;2024-02-04T01:42:46;3.20;99.90
8067;DHT22;4076;48.076;9.118;2024-02-04T01:45:11;3.20;99.90
8067;DHT22;4076;48.076;9.118;2024-02-04T01:47:37;3.20;99.90
8067;DHT22;4076;48.076;9.118;2024-02-04T01:50:03;3.10;99.90
8067;DHT22;4076;48.076;9.118;2024-02-04T01:52:32;3.10;99.90
8067;DHT22;4076;48.076;9.118;2024-02-04T01:54:59;3.10;99.90
8067;DHT22;4076;48.076;9.118;2024-02-04T01:57:26;3.10;99.90
8067;DHT22;4076;48.076;9.118;2024-02-04T01:59:52;3.20;99.90
8067;DHT22;4076;48.076;9.118;2024-02-04T02:02:20;3.20;99.90
8067;DHT22;4076;48.076;9.118;2024-02-04T02:04:46;3.20;99.90
8067;DHT22;4076;48.076;9.118;2024-02-04T02:07:13;3.30;99.90
8067;DHT22;4076;48.076;9.118;2024-02-04T02:09:42;3.30;99.90
8067;DHT22;4076;48.076;9.118;2024-02-04T02:12:11;3.30;99.90
8067;DHT22;4076;48.076;9.118;2024-02-04T02:14:41;3.30;99.90
8067;DHT22;4076;48.076;9.118;2024-02-04T02:17:12;3.30;99.90
8067;DHT22;4076;48.076;9.118;2024-02-04T02:25:18;3.50;99.90
8067;DHT22;4076;48.076;9.118;2024-02-04T02:27:51;3.50;99.90
8067;DHT22;4076;48.076;9.118;2024-02-04T02:30:17;3.50;99.90
8067;DHT22;4076;48.076;9.118;2024-02-04T02:32:46;3.50;99.90
8067;DHT22;4076;48.076;9.118;2024-02-04T02:35:16;3.50;99.90
8067;DHT22;4076;48.076;9.118;2024-02-04T02:40:48;3.50;99.90
8067;DHT22;4076;48.076;9.118;2024-02-04T02:43:15;3.60;99.90
8067;DHT22;4076;48.076;9.118;2024-02-04T02:45:42;3.60;99.90
8067;DHT22;4076;48.076;9.118;2024-02-04T02:48:09;3.60;99.90
8067;DHT22;4076;48.076;9.118;2024-02-04T02:50:36;3.60;99.90
8067;DHT22;4076;48.076;9.118;2024-02-04T02:53:01;3.60;99.90
8067;DHT22;4076;48.076;9.118;2024-02-04T02:55:27;3.60;99.90
8067;DHT22;4076;48.076;9.118;2024-02-04T02:57:53;3.50;99.90
8067;DHT22;4076;48.076;9.118;2024-02-04T03:00:18;3.50;99.90
8067;DHT22;4076;48.076;9.118;2024-02-04T03:02:44;3.50;99.90
8067;DHT22;4076;48.076;9.118;2024-02-04T03:05:10;3.50;99.90
8067;DHT22;4076;48.076;9.118;2024-02-04T03:07:37;3.50;99.90
8067;DHT22;4076;48.076;9.118;2024-02-04T03:10:02;3.40;99.90
8067;DHT22;4076;48.076;9.118;2024-02-04T03:12:28;3.40;99.90
8067;DHT22;4076;48.076;9.118;2024-02-04T03:14:54;3.40;99.90
8067;DHT22;4076;48.076;9.118;2024-02-04T03:17:19;3.40;99.90
8067;DHT22;4076;48.076;9.118;2024-02-04T03:19:47;3.50;99.90
8067;DHT22;4076;48.076;9.118;2024-02-04T03:22:13;3.50;99.90
8067;DHT22;4076;48.076;9.118;2024-02-04T03:24:39;3.40;99.90
8067;DHT22;4076;48.076;9.118;2024-02-04T03:27:04;3.40;99.90
8067;DHT22;4076;48.076;9.118;2024-02-04T03:29:30;3.30;99.90
8067;DHT22;4076;48.076;9.118;2024-02-04T03:31:56;3.30;99.90
8067;DHT22;4076;48.076;9.118;2024-02-04T03:34:22;3.30;99.90
8067;DHT22;4076;48.076;9.118;2024-02-04T03:36:47;3.20;99.90
8067;DHT22;4076;48.076;9.118;2024-02-04T03:39:13;3.20;99.90
8067;DHT22;4076;48.076;9.118;2024-02-04T03:41:39;3.20;99.90
8067;DHT22;4076;48.076;9.118;2024-02-04T03:44:05;3.20;99.90
8067;DHT22;4076;48.076;9.118;2024-02-04T03:46:31;3.20;99.90
8067;DHT22;4076;48.076;9.118;2024-02-04T03:48:56;3.20;99.90
8067;DHT22;4076;48.076;9.118;2024-02-04T03:51:22;3.10;99.90
8067;DHT22;4076;48.076;9.118;2024-02-04T03:53:49;3.10;99.90
8067;DHT22;4076;48.076;9.118;2024-02-04T03:56:14;3.10;99.90
8067;DHT22;4076;48.076;9.118;2024-02-04T03:58:40;3.10;99.90
8067;DHT22;4076;48.076;9.118;2024-02-04T04:01:09;3.00;99.90
8067;DHT22;4076;48.076;9.118;2024-02-04T04:03:34;3.00;99.90
8067;DHT22;4076;48.076;9.118;2024-02-04T04:06:00;3.00;99.90
8067;DHT22;4076;48.076;9.118;2024-02-04T04:08:26;3.10;99.90
8067;DHT22;4076;48.076;9.118;2024-02-04T04:10:51;3.10;99.90
8067;DHT22;4076;48.076;9.118;2024-02-04T04:13:17;3.10;99.90
8067;DHT22;4076;48.076;9.118;2024-02-04T04:15:42;3.20;99.90
8067;DHT22;4076;48.076;9.118;2024-02-04T04:18:08;3.20;99.90
8067;DHT22;4076;48.076;9.118;2024-02-04T04:20:36;3.20;99.90
8067;DHT22;4076;48.076;9.118;2024-02-04T04:23:01;3.20;99.90
8067;DHT22;4076;48.076;9.118;2024-02-04T04:25:27;3.10;99.90
8067;DHT22;4076;48.076;9.118;2024-02-04T04:27:53;3.10;99.90
8067;DHT22;4076;48.076;9.118;2024-02-04T04:30:18;3.00;99.90
8067;DHT22;4076;48.076;9.118;2024-02-04T04:32:44;3.00;99.90
8067;DHT22;4076;48.076;9.118;2024-02-04T04:35:09;2.90;99.90
8067;DHT22;4076;48.076;9.118;2024-02-04T04:37:35;3.00;99.90
8067;DHT22;4076;48.076;9.118;2024-02-04T04:40:00;3.00;99.90
8067;DHT22;4076;48.076;9.118;2024-02-04T04:42:26;2.90;99.90
8067;DHT22;4076;48.076;9.118;2024-02-04T04:44:52;3.00;99.90
8067;DHT22;4076;48.076;9.118;2024-02-04T04:47:17;3.00;99.90
8067;DHT22;4076;48.076;9.118;2024-02-04T04:49:43;3.40;99.90
8067;DHT22;4076;48.076;9.118;2024-02-04T04:52:08;3.00;99.90
8067;DHT22;4076;48.076;9.118;2024-02-04T04:54:34;3.00;99.90
8067;DHT22;4076;48.076;9.118;2024-02-04T04:57:00;3.00;99.90
8067;DHT22;4076;48.076;9.118;2024-02-04T04:59:25;3.00;99.90
8067;DHT22;4076;48.076;9.118;2024-02-04T05:01:51;3.00;99.90
8067;DHT22;4076;48.076;9.118;2024-02-04T05:04:17;3.00;99.90
8067;DHT22;4076;48.076;9.118;2024-02-04T05:06:44;3.00;99.90
8067;DHT22;4076;48.076;9.118;2024-02-04T05:09:10;3.00;99.90
8067;DHT22;4076;48.076;9.118;2024-02-04T05:11:35;3.00;99.90
8067;DHT22;4076;48.076;9.118;2024-02-04T05:14:01;3.00;99.90
8067;DHT22;4076;48.076;9.118;2024-02-04T05:16:27;3.10;99.90
8067;DHT22;4076;48.076;9.118;2024-02-04T05:18:52;3.10;99.90
8067;DHT22;4076;48.076;9.118;2024-02-04T05:21:18;3.10;99.90
8067;DHT22;4076;48.076;9.118;2024-02-04T05:23:53;3.10;99.90
8067;DHT22;4076;48.076;9.118;2024-02-04T05:26:30;3.10;99.90
8067;DHT22;4076;48.076;9.118;2024-02-04T05:28:56;3.10;99.90
8067;DHT22;4076;48.076;9.118;2024-02-04T05:31:21;3.10;99.90
8067;DHT22;4076;48.076;9.118;2024-02-04T05:33:47;3.10;99.90
8067;DHT22;4076;48.076;9.118;2024-02-04T05:36:13;3.20;99.90
8067;DHT22;4076;48.076;9.118;2024-02-04T05:38:38;3.20;99.90
8067;DHT22;4076;48.076;9.118;2024-02-04T05:41:04;3.20;99.90
8067;DHT22;4076;48.076;9.118;2024-02-04T05:43:29;3.20;99.90
8067;DHT22;4076;48.076;9.118;2024-02-04T05:45:55;3.20;99.90
8067;DHT22;4076;48.076;9.118;2024-02-04T05:48:20;3.20;99.90
8067;DHT22;4076;48.076;9.118;2024-02-04T05:50:46;3.20;99.90
8067;DHT22;4076;48.076;9.118;2024-02-04T05:53:12;3.30;99.90
8067;DHT22;4076;48.076;9.118;2024-02-04T05:55:37;3.30;99.90
8067;DHT22;4076;48.076;9.118;2024-02-04T05:58:03;3.30;99.90
8067;DHT22;4076;48.076;9.118;2024-02-04T06:00:29;3.30;99.90
8067;DHT22;4076;48.076;9.118;2024-02-04T06:02:54;3.40;99.90
8067;DHT22;4076;48.076;9.118;2024-02-04T06:05:20;3.40;99.90
8067;DHT22;4076;48.076;9.118;2024-02-04T06:07:45;3.40;99.90
8067;DHT22;4076;48.076;9.118;2024-02-04T06:10:11;3.40;99.90
8067;DHT22;4076;48.076;9.118;2024-02-04T06:12:37;3.40;99.90
8067;DHT22;4076;48.076;9.118;2024-02-04T06:15:11;3.50;99.90
8067;DHT22;4076;48.076;9.118;2024-02-04T06:17:37;3.60;99.90
8067;DHT22;4076;48.076;9.118;2024-02-04T06:20:03;3.60;99.90
8067;DHT22;4076;48.076;9.118;2024-02-04T06:22:29;3.60;99.90
8067;DHT22;4076;48.076;9.118;2024-02-04T06:24:54;3.60;99.90
8067;DHT22;4076;48.076;9.118;2024-02-04T06:27:20;3.60;99.90
8067;DHT22;4076;48.076;9.118;2024-02-04T06:29:46;3.60;99.90
8067;DHT22;4076;48.076;9.118;2024-02-04T06:32:11;3.60;99.90
8067;DHT22;4076;48.076;9.118;2024-02-04T06:34:42;3.60;99.90
8067;DHT22;4076;48.076;9.118;2024-02-04T06:37:08;3.60;99.90
8067;DHT22;4076;48.076;9.118;2024-02-04T06:39:33;3.70;99.90
8067;DHT22;4076;48.076;9.118;2024-02-04T06:41:59;3.70;99.90
8067;DHT22;4076;48.076;9.118;2024-02-04T06:44:24;3.70;99.90
8067;DHT22;4076;48.076;9.118;2024-02-04T06:46:50;3.70;99.90
8067;DHT22;4076;48.076;9.118;2024-02-04T06:49:16;3.70;99.90
8067;DHT22;4076;48.076;9.118;2024-02-04T06:51:44;3.80;99.90
8067;DHT22;4076;48.076;9.118;2024-02-04T06:54:10;3.80;99.90
8067;DHT22;4076;48.076;9.118;2024-02-04T06:56:36;3.80;99.90
8067;DHT22;4076;48.076;9.118;2024-02-04T06:59:02;3.90;99.90
8067;DHT22;4076;48.076;9.118;2024-02-04T07:01:28;3.90;99.90
8067;DHT22;4076;48.076;9.118;2024-02-04T07:03:54;4.00;99.90
8067;DHT22;4076;48.076;9.118;2024-02-04T07:06:19;4.00;99.90
8067;DHT22;4076;48.076;9.118;2024-02-04T07:08:45;4.00;99.90
8067;DHT22;4076;48.076;9.118;2024-02-04T07:11:10;4.00;99.90
8067;DHT22;4076;48.076;9.118;2024-02-04T07:13:36;4.10;99.90
8067;DHT22;4076;48.076;9.118;2024-02-04T07:16:02;4.10;99.90
8067;DHT22;4076;48.076;9.118;2024-02-04T07:18:27;4.10;99.90
8067;DHT22;4076;48.076;9.118;2024-02-04T07:20:53;4.20;99.90
8067;DHT22;4076;48.076;9.118;2024-02-04T07:23:19;4.30;99.90
8067;DHT22;4076;48.076;9.118;2024-02-04T07:25:44;4.30;99.90
8067;DHT22;4076;48.076;9.118;2024-02-04T07:28:11;4.40;99.90
8067;DHT22;4076;48.076;9.118;2024-02-04T07:30:36;4.40;99.90
8067;DHT22;4076;48.076;9.118;2024-02-04T07:33:02;4.40;99.90
8067;DHT22;4076;48.076;9.118;2024-02-04T07:35:27;4.40;99.90
8067;DHT22;4076;48.076;9.118;2024-02-04T07:37:53;4.40;99.90
8067;DHT22;4076;48.076;9.118;2024-02-04T07:40:19;4.40;99.90
8067;DHT22;4076;48.076;9.118;2024-02-04T07:42:44;4.50;99.90
8067;DHT22;4076;48.076;9.118;2024-02-04T07:45:10;4.50;99.90
8067;DHT22;4076;48.076;9.118;2024-02-04T07:47:36;4.60;99.90
8067;DHT22;4076;48.076;9.118;2024-02-04T07:50:02;4.70;99.90
8067;DHT22;4076;48.076;9.118;2024-02-04T07:52:28;4.70;99.90
8067;DHT22;4076;48.076;9.118;2024-02-04T07:54:53;4.80;99.90
8067;DHT22;4076;48.076;9.118;2024-02-04T07:57:19;4.90;99.90
8067;DHT22;4076;48.076;9.118;2024-02-04T07:59:48;4.90;99.90
8067;DHT22;4076;48.076;9.118;2024-02-04T08:02:14;5.00;99.90
8067;DHT22;4076;48.076;9.118;2024-02-04T08:04:40;5.10;99.90
8067;DHT22;4076;48.076;9.118;2024-02-04T08:07:07;5.10;99.90
8067;DHT22;4076;48.076;9.118;2024-02-04T08:09:32;5.10;99.90
8067;DHT22;4076;48.076;9.118;2024-02-04T08:11:58;5.20;99.90
8067;DHT22;4076;48.076;9.118;2024-02-04T08:14:23;5.20;99.90
8067;DHT22;4076;48.076;9.118;2024-02-04T08:16:49;5.30;99.90
8067;DHT22;4076;48.076;9.118;2024-02-04T08:19:15;5.30;99.90
8067;DHT22;4076;48.076;9.118;2024-02-04T08:21:40;5.40;99.90
8067;DHT22;4076;48.076;9.118;2024-02-04T08:24:06;5.40;99.90
8067;DHT22;4076;48.076;9.118;2024-02-04T08:26:32;5.40;99.90
8067;DHT22;4076;48.076;9.118;2024-02-04T08:28:58;5.50;99.90
8067;DHT22;4076;48.076;9.118;2024-02-04T08:31:23;5.50;99.90
8067;DHT22;4076;48.076;9.118;2024-02-04T08:33:49;5.60;99.90
8067;DHT22;4076;48.076;9.118;2024-02-04T08:36:14;5.70;99.90
8067;DHT22;4076;48.076;9.118;2024-02-04T08:38:41;5.90;99.90
8067;DHT22;4076;48.076;9.118;2024-02-04T08:41:06;6.10;99.90
8067;DHT22;4076;48.076;9.118;2024-02-04T08:43:32;6.20;99.90
8067;DHT22;4076;48.076;9.118;2024-02-04T08:45:58;6.20;99.90
8067;DHT22;4076;48.076;9.118;2024-02-04T08:48:23;6.20;99.90
8067;DHT22;4076;48.076;9.118;2024-02-04T08:50:49;6.20;99.90
8067;DHT22;4076;48.076;9.118;2024-02-04T08:53:14;6.30;99.90
8067;DHT22;4076;48.076;9.118;2024-02-04T08:55:40;6.40;99.90
8067;DHT22;4076;48.076;9.118;2024-02-04T08:58:06;6.70;99.90
8067;DHT22;4076;48.076;9.118;2024-02-04T09:00:31;7.00;99.90
8067;DHT22;4076;48.076;9.118;2024-02-04T09:02:57;7.40;99.90
8067;DHT22;4076;48.076;9.118;2024-02-04T09:05:23;7.60;99.90
8067;DHT22;4076;48.076;9.118;2024-02-04T09:07:48;7.80;99.90
8067;DHT22;4076;48.076;9.118;2024-02-04T09:10:14;7.90;99.90
8067;DHT22;4076;48.076;9.118;2024-02-04T09:12:40;8.10;99.90
8067;DHT22;4076;48.076;9.118;2024-02-04T09:15:06;8.10;99.90
8067;DHT22;4076;48.076;9.118;2024-02-04T09:17:32;8.40;99.90
8067;DHT22;4076;48.076;9.118;2024-02-04T09:20:00;8.90;99.90
8067;DHT22;4076;48.076;9.118;2024-02-04T09:22:26;9.60;99.90
8067;DHT22;4076;48.076;9.118;2024-02-04T09:24:52;10.20;99.90
8067;DHT22;4076;48.076;9.118;2024-02-04T09:27:17;10.60;99.90
8067;DHT22;4076;48.076;9.118;2024-02-04T09:29:43;10.90;99.90
8067;DHT22;4076;48.076;9.118;2024-02-04T09:32:09;11.20;99.90
8067;DHT22;4076;48.076;9.118;2024-02-04T09:34:34;11.70;99.90
8067;DHT22;4076;48.076;9.118;2024-02-04T09:37:00;12.20;99.90
8067;DHT22;4076;48.076;9.118;2024-02-04T09:39:26;12.30;99.90
8067;DHT22;4076;48.076;9.118;2024-02-04T09:41:52;12.20;97.40
8067;DHT22;4076;48.076;9.118;2024-02-04T09:44:19;12.40;99.90
8067;DHT22;4076;48.076;9.118;2024-02-04T09:46:45;12.60;95.20
8067;DHT22;4076;48.076;9.118;2024-02-04T09:49:11;13.40;93.00
8067;DHT22;4076;48.076;9.118;2024-02-04T09:51:39;14.30;88.60
8067;DHT22;4076;48.076;9.118;2024-02-04T09:54:05;15.00;81.70
8067;DHT22;4076;48.076;9.118;2024-02-04T09:56:35;15.20;74.60
8067;DHT22;4076;48.076;9.118;2024-02-04T09:59:02;15.00;75.70
8067;DHT22;4076;48.076;9.118;2024-02-04T10:01:28;14.90;72.50
8067;DHT22;4076;48.076;9.118;2024-02-04T10:03:55;15.00;72.20
8067;DHT22;4076;48.076;9.118;2024-02-04T10:06:21;15.10;69.80
8067;DHT22;4076;48.076;9.118;2024-02-04T10:08:46;15.20;66.30
8067;DHT22;4076;48.076;9.118;2024-02-04T10:11:13;15.40;67.20
8067;DHT22;4076;48.076;9.118;2024-02-04T10:13:45;15.50;64.90
8067;DHT22;4076;48.076;9.118;2024-02-04T10:16:17;15.80;64.00
8067;DHT22;4076;48.076;9.118;2024-02-04T10:18:47;16.00;60.10
8067;DHT22;4076;48.076;9.118;2024-02-04T10:21:15;16.20;60.40
8067;DHT22;4076;48.076;9.118;2024-02-04T10:23:42;16.60;59.30
8067;DHT22;4076;48.076;9.118;2024-02-04T10:26:08;17.00;58.50
8067;DHT22;4076;48.076;9.118;2024-02-04T10:28:33;17.30;57.50
8067;DHT22;4076;48.076;9.118;2024-02-04T10:30:59;17.60;55.50
8067;DHT22;4076;48.076;9.118;2024-02-04T10:33:25;17.50;54.00
8067;DHT22;4076;48.076;9.118;2024-02-04T10:35:50;17.30;53.40
8067;DHT22;4076;48.076;9.118;2024-02-04T10:38:16;16.80;52.40
8067;DHT22;4076;48.076;9.118;2024-02-04T10:40:42;16.00;53.00
8067;DHT22;4076;48.076;9.118;2024-02-04T10:43:09;15.60;54.20
8067;DHT22;4076;48.076;9.118;2024-02-04T10:45:38;15.20;54.50
8067;DHT22;4076;48.076;9.118;2024-02-04T10:48:05;15.20;55.00
8067;DHT22;4076;48.076;9.118;2024-02-04T10:50:34;15.30;54.60
8067;DHT22;4076;48.076;9.118;2024-02-04T10:53:04;15.40;54.70
8067;DHT22;4076;48.076;9.118;2024-02-04T10:55:30;15.40;54.90
8067;DHT22;4076;48.076;9.118;2024-02-04T10:57:58;15.30;54.20
8067;DHT22;4076;48.076;9.118;2024-02-04T11:00:24;14.90;54.90
8067;DHT22;4076;48.076;9.118;2024-02-04T11:02:51;14.70;55.70
8067;DHT22;4076;48.076;9.118;2024-02-04T11:05:19;14.60;55.70
8067;DHT22;4076;48.076;9.118;2024-02-04T11:07:46;14.40;56.40
8067;DHT22;4076;48.076;9.118;2024-02-04T11:10:13;14.30;56.60
8067;DHT22;4076;48.076;9.118;2024-02-04T11:12:40;14.60;57.10
8067;DHT22;4076;48.076;9.118;2024-02-04T11:15:09;14.60;56.30
8067;DHT22;4076;48.076;9.118;2024-02-04T11:25:45;14.80;56.20
8067;DHT22;4076;48.076;9.118;2024-02-04T11:28:11;14.70;56.90
8067;DHT22;4076;48.076;9.118;2024-02-04T11:30:38;14.70;57.00
8067;DHT22;4076;48.076;9.118;2024-02-04T11:33:04;15.00;58.00
8067;DHT22;4076;48.076;9.118;2024-02-04T11:35:32;16.50;56.30
8067;DHT22;4076;48.076;9.118;2024-02-04T11:37:57;17.10;54.00
8067;DHT22;4076;48.076;9.118;2024-02-04T11:40:23;17.90;53.10
8067;DHT22;4076;48.076;9.118;2024-02-04T11:42:49;19.30;51.50
8067;DHT22;4076;48.076;9.118;2024-02-04T11:45:16;20.30;49.10
8067;DHT22;4076;48.076;9.118;2024-02-04T11:47:42;21.30;47.60
8067;DHT22;4076;48.076;9.118;2024-02-04T11:50:08;22.10;46.60
8067;DHT22;4076;48.076;9.118;2024-02-04T11:52:37;22.80;45.50
8067;DHT22;4076;48.076;9.118;2024-02-04T11:55:05;22.60;43.80
8067;DHT22;4076;48.076;9.118;2024-02-04T11:57:32;22.60;44.30
8067;DHT22;4076;48.076;9.118;2024-02-04T11:59:58;22.90;43.50
8067;DHT22;4076;48.076;9.118;2024-02-04T12:02:26;23.00;42.70
8067;DHT22;4076;48.076;9.118;2024-02-04T12:04:52;22.50;42.60
8067;DHT22;4076;48.076;9.118;2024-02-04T12:07:25;21.60;43.50
8067;DHT22;4076;48.076;9.118;2024-02-04T12:09:51;20.20;44.60
8067;DHT22;4076;48.076;9.118;2024-02-04T12:12:18;19.10;46.10
8067;DHT22;4076;48.076;9.118;2024-02-04T12:14:45;18.20;47.30
8067;DHT22;4076;48.076;9.118;2024-02-04T12:17:11;17.50;48.60
8067;DHT22;4076;48.076;9.118;2024-02-04T12:19:37;17.50;48.90
8067;DHT22;4076;48.076;9.118;2024-02-04T12:22:06;17.60;49.50
8067;DHT22;4076;48.076;9.118;2024-02-04T12:24:38;17.60;49.20
8067;DHT22;4076;48.076;9.118;2024-02-04T12:27:04;17.50;49.20
8067;DHT22;4076;48.076;9.118;2024-02-04T12:29:32;17.30;49.20
8067;DHT22;4076;48.076;9.118;2024-02-04T12:32:01;17.20;49.50
8067;DHT22;4076;48.076;9.118;2024-02-04T12:34:28;17.20;49.90
8067;DHT22;4076;48.076;9.118;2024-02-04T12:37:00;17.40;49.90
8067;DHT22;4076;48.076;9.118;2024-02-04T12:39:27;17.40;49.00
8067;DHT22;4076;48.076;9.118;2024-02-04T12:41:53;17.10;49.10
8067;DHT22;4076;48.076;9.118;2024-02-04T12:44:19;16.90;49.30
8067;DHT22;4076;48.076;9.118;2024-02-04T12:46:44;16.60;49.70
8067;DHT22;4076;48.076;9.118;2024-02-04T12:49:16;16.40;50.20
8067;DHT22;4076;48.076;9.118;2024-02-04T12:51:43;16.10;50.60
8067;DHT22;4076;48.076;9.118;2024-02-04T12:54:10;16.00;51.10
8067;DHT22;4076;48.076;9.118;2024-02-04T12:56:53;15.90;51.50
8067;DHT22;4076;48.076;9.118;2024-02-04T12:59:32;15.80;51.60
8067;DHT22;4076;48.076;9.118;2024-02-04T13:02:07;15.70;52.00
8067;DHT22;4076;48.076;9.118;2024-02-04T13:04:37;15.60;52.50
8067;DHT22;4076;48.076;9.118;2024-02-04T13:07:11;15.10;53.50
8067;DHT22;4076;48.076;9.118;2024-02-04T13:09:42;14.50;54.10
8067;DHT22;4076;48.076;9.118;2024-02-04T13:12:08;14.10;55.10
8067;DHT22;4076;48.076;9.118;2024-02-04T13:14:35;13.60;55.90
8067;DHT22;4076;48.076;9.118;2024-02-04T13:17:02;13.40;56.90
8067;DHT22;4076;48.076;9.118;2024-02-04T13:19:35;13.30;57.60
8067;DHT22;4076;48.076;9.118;2024-02-04T13:22:04;13.50;57.80
8067;DHT22;4076;48.076;9.118;2024-02-04T13:24:31;13.60;57.20
8067;DHT22;4076;48.076;9.118;2024-02-04T13:26:57;13.40;57.30
8067;DHT22;4076;48.076;9.118;2024-02-04T13:29:23;13.30;58.00
8067;DHT22;4076;48.076;9.118;2024-02-04T13:31:48;13.20;58.30
8067;DHT22;4076;48.076;9.118;2024-02-04T13:34:14;13.10;58.50
8067;DHT22;4076;48.076;9.118;2024-02-04T13:36:40;13.10;58.90
8067;DHT22;4076;48.076;9.118;2024-02-04T13:39:06;12.80;58.90
8067;DHT22;4076;48.076;9.118;2024-02-04T13:41:32;12.50;59.70
8067;DHT22;4076;48.076;9.118;2024-02-04T13:43:57;12.20;60.30
8067;DHT22;4076;48.076;9.118;2024-02-04T13:46:23;12.10;60.90
8067;DHT22;4076;48.076;9.118;2024-02-04T13:48:49;11.90;61.90
8067;DHT22;4076;48.076;9.118;2024-02-04T13:51:15;11.80;63.20
8067;DHT22;4076;48.076;9.118;2024-02-04T13:53:40;11.80;63.50
8067;DHT22;4076;48.076;9.118;2024-02-04T13:56:06;11.80;64.60
8067;DHT22;4076;48.076;9.118;2024-02-04T13:58:32;11.80;65.20
8067;DHT22;4076;48.076;9.118;2024-02-04T14:00:57;11.80;64.10
8067;DHT22;4076;48.076;9.118;2024-02-04T14:03:24;11.90;65.60
8067;DHT22;4076;48.076;9.118;2024-02-04T14:05:50;11.90;65.50
8067;DHT22;4076;48.076;9.118;2024-02-04T14:08:16;12.00;65.10
8067;DHT22;4076;48.076;9.118;2024-02-04T14:10:42;12.00;65.40
8067;DHT22;4076;48.076;9.118;2024-02-04T14:13:07;12.00;64.70
8067;DHT22;4076;48.076;9.118;2024-02-04T14:15:33;11.90;64.20
8067;DHT22;4076;48.076;9.118;2024-02-04T14:17:59;11.90;64.90
8067;DHT22;4076;48.076;9.118;2024-02-04T14:20:25;11.80;65.30
8067;DHT22;4076;48.076;9.118;2024-02-04T14:22:51;11.70;65.60
8067;DHT22;4076;48.076;9.118;2024-02-04T14:25:16;11.70;65.70
8067;DHT22;4076;48.076;9.118;2024-02-04T14:27:42;11.70;66.40
8067;DHT22;4076;48.076;9.118;2024-02-04T14:30:08;11.60;66.80
8067;DHT22;4076;48.076;9.118;2024-02-04T14:32:34;11.70;66.80
8067;DHT22;4076;48.076;9.118;2024-02-04T14:35:00;11.60;66.90
8067;DHT22;4076;48.076;9.118;2024-02-04T14:37:26;11.70;67.10
8067;DHT22;4076;48.076;9.118;2024-02-04T14:39:51;11.70;66.80
8067;DHT22;4076;48.076;9.118;2024-02-04T14:42:18;11.70;66.70
8067;DHT22;4076;48.076;9.118;2024-02-04T14:44:44;11.70;67.30
8067;DHT22;4076;48.076;9.118;2024-02-04T14:47:10;11.70;67.40
8067;DHT22;4076;48.076;9.118;2024-02-04T14:49:36;11.70;67.50
8067;DHT22;4076;48.076;9.118;2024-02-04T14:52:02;11.70;67.40
8067;DHT22;4076;48.076;9.118;2024-02-04T14:54:28;11.80;67.60
8067;DHT22;4076;48.076;9.118;2024-02-04T14:56:53;11.80;67.60
8067;DHT22;4076;48.076;9.118;2024-02-04T14:59:19;11.80;67.50
8067;DHT22;4076;48.076;9.118;2024-02-04T15:01:45;11.70;67.50
8067;DHT22;4076;48.076;9.118;2024-02-04T15:04:14;11.60;67.70
8067;DHT22;4076;48.076;9.118;2024-02-04T15:06:43;11.60;67.70
8067;DHT22;4076;48.076;9.118;2024-02-04T15:09:09;11.50;67.80
8067;DHT22;4076;48.076;9.118;2024-02-04T15:11:36;11.50;67.90
8067;DHT22;4076;48.076;9.118;2024-02-04T15:14:03;11.50;67.80
8067;DHT22;4076;48.076;9.118;2024-02-04T15:16:29;11.40;68.10
8067;DHT22;4076;48.076;9.118;2024-02-04T15:18:54;11.30;68.40
8067;DHT22;4076;48.076;9.118;2024-02-04T15:21:20;11.30;68.80
8067;DHT22;4076;48.076;9.118;2024-02-04T15:23:46;11.20;68.80
8067;DHT22;4076;48.076;9.118;2024-02-04T15:26:14;11.20;69.20
8067;DHT22;4076;48.076;9.118;2024-02-04T15:28:41;11.10;70.30
8067;DHT22;4076;48.076;9.118;2024-02-04T15:31:08;11.10;70.50
8067;DHT22;4076;48.076;9.118;2024-02-04T15:33:34;11.00;70.20
8067;DHT22;4076;48.076;9.118;2024-02-04T15:36:00;10.90;70.40
8067;DHT22;4076;48.076;9.118;2024-02-04T15:38:26;10.80;71.60
8067;DHT22;4076;48.076;9.118;2024-02-04T15:40:53;10.70;71.10
8067;DHT22;4076;48.076;9.118;2024-02-04T15:43:19;10.60;71.80
8067;DHT22;4076;48.076;9.118;2024-02-04T15:45:46;10.50;73.10
8067;DHT22;4076;48.076;9.118;2024-02-04T15:48:16;10.30;74.00
8067;DHT22;4076;48.076;9.118;2024-02-04T15:50:43;10.20;74.30
8067;DHT22;4076;48.076;9.118;2024-02-04T15:53:09;10.10;75.10
8067;DHT22;4076;48.076;9.118;2024-02-04T15:55:35;10.00;75.30
8067;DHT22;4076;48.076;9.118;2024-02-04T15:58:03;9.90;77.50
8067;DHT22;4076;48.076;9.118;2024-02-04T16:00:30;9.90;76.90
8067;DHT22;4076;48.076;9.118;2024-02-04T16:02:56;9.90;77.50
8067;DHT22;4076;48.076;9.118;2024-02-04T16:05:22;9.80;77.50
8067;DHT22;4076;48.076;9.118;2024-02-04T16:07:49;9.80;78.00
8067;DHT22;4076;48.076;9.118;2024-02-04T16:10:17;9.80;78.40
8067;DHT22;4076;48.076;9.118;2024-02-04T16:12:58;9.70;78.90
8067;DHT22;4076;48.076;9.118;2024-02-04T16:15:27;9.60;79.10
8067;DHT22;4076;48.076;9.118;2024-02-04T16:17:53;9.50;79.80
8067;DHT22;4076;48.076;9.118;2024-02-04T16:20:20;9.40;80.30
8067;DHT22;4076;48.076;9.118;2024-02-04T16:22:46;9.40;80.90